Beale Air Force Base Marysville US
ICAO: KBAB
IATA: BAB
Category: Large
Scheduled Services: No

Elevation: 113 ft
TransAlt. 18000 ft.

Airport Communications:
940TH COMD POST:25.602
NORCAL APP:125.4
ATIS:27.35
NORCAL DEP:125.4
GND:121.6
SUPERVISOR OF FLYING:138.5
PMSV METRO:23.98
WING COMD POST:32.1
PTD:140.875
TWR:119.4

KBAB Zoom In..

If you have problems with the map follow the link
https://www.worldairports.se/pages/airport.php?
ICAO=KBAB

Runways:

(A) RW 15 length 12000 ft width 300 ft
ILS 109.50 / hdg 145

(B) RW 33 length 12000 ft width 300 ft
ILS 109.50 / hdg 325

Location; KBAB
Day. 18 / Time. 23.58 Zulu
* Altimeter: 30.03
* Temperature: 27° c. 80.6°f.
* Wind from: 320° Speed 05 kn.
Dewpoint: 02° c.
Visibility: 10 Statute Miles.
Clouds: Clear (automated report).

KBAB 182358Z AUTO 32005KT 10SM CLR 27/02 A3003 RMK AO2 SLP172 T02660018 10271 20207 57015 $


Wind From 320°
Speed 05 kn.

 
 
jpsmedia.com for Web Design worldairports.se 2018   terms of use